createdAt,value
2023-03-25T00:03:02.601Z,9.10
2023-03-25T00:08:06.081Z,9.95
2023-03-25T00:13:13.524Z,8.80
2023-03-25T00:18:18.421Z,12.30
2023-03-25T00:23:21.856Z,9.27
2023-03-25T00:28:26.376Z,9.75
2023-03-25T00:33:30.037Z,10.10
2023-03-25T00:38:35.273Z,10.60
2023-03-25T00:43:39.968Z,9.32
2023-03-25T00:48:43.233Z,9.68
2023-03-25T00:53:46.621Z,5.78
2023-03-25T00:58:51.246Z,16.13
2023-03-25T01:03:58.030Z,8.20
2023-03-25T01:09:02.363Z,13.30
2023-03-25T01:14:07.759Z,15.00
2023-03-25T01:19:11.018Z,11.07
2023-03-25T01:24:15.417Z,10.68
2023-03-25T01:29:21.181Z,8.10
2023-03-25T01:34:24.587Z,15.73
2023-03-25T01:39:28.657Z,12.57
2023-03-25T01:44:50.628Z,11.27
2023-03-25T01:49:55.113Z,17.08
2023-03-25T01:54:59.883Z,14.55
2023-03-25T02:00:06.807Z,10.73
2023-03-25T02:05:19.469Z,9.40
2023-03-25T02:10:22.690Z,11.05
2023-03-25T02:15:26.018Z,9.57
2023-03-25T02:20:54.290Z,13.30
2023-03-25T02:26:04.152Z,8.25
2023-03-25T02:31:18.471Z,13.80
2023-03-25T02:36:56.368Z,7.93
2023-03-25T02:42:03.654Z,11.65
2023-03-25T02:47:09.573Z,6.72
2023-03-25T02:52:15.488Z,10.40
2023-03-25T02:57:21.318Z,8.82
2023-03-25T03:02:26.688Z,14.63
2023-03-25T03:07:31.493Z,9.75
2023-03-25T03:12:46.762Z,11.50
2023-03-25T03:17:58.263Z,8.63
2023-03-25T03:23:06.102Z,11.23
2023-03-25T03:28:11.922Z,8.02
2023-03-25T03:33:17.963Z,6.95
2023-03-25T03:38:23.645Z,14.90
2023-03-25T03:43:29.761Z,9.40
2023-03-25T03:48:38.153Z,11.05
2023-03-25T03:53:43.040Z,11.13
2023-03-25T03:58:49.605Z,10.73
2023-03-25T04:03:55.036Z,14.55
2023-03-25T04:09:00.260Z,12.85
2023-03-25T04:14:06.469Z,10.07
2023-03-25T04:19:09.569Z,13.77
2023-03-25T04:24:16.562Z,13.70
2023-03-25T04:29:20.957Z,16.90
2023-03-25T04:34:24.043Z,16.15
2023-03-25T04:39:29.803Z,8.77
2023-03-25T04:44:39.042Z,11.07
2023-03-25T04:49:45.249Z,13.80
2023-03-25T04:54:48.422Z,14.68
2023-03-25T04:59:52.914Z,12.13
2023-03-25T05:05:02.184Z,14.25
2023-03-25T05:10:05.534Z,11.60
2023-03-25T05:15:11.239Z,10.25
2023-03-25T05:20:15.137Z,12.50
2023-03-25T05:25:22.069Z,13.15
2023-03-25T05:30:32.396Z,12.02
2023-03-25T05:35:35.580Z,11.47
2023-03-25T05:40:40.160Z,7.60
2023-03-25T05:45:45.068Z,11.77
2023-03-25T05:50:48.175Z,10.95
2023-03-25T05:55:55.811Z,11.00
2023-03-25T06:01:03.090Z,11.65
2023-03-25T06:06:06.590Z,9.80
2023-03-25T06:11:10.254Z,12.95
2023-03-25T06:16:18.542Z,13.38
2023-03-25T06:21:22.729Z,15.25
2023-03-25T06:26:26.449Z,15.27
2023-03-25T06:31:34.143Z,21.27
2023-03-25T06:36:37.592Z,15.07
2023-03-25T06:41:40.640Z,10.45
2023-03-25T06:46:57.575Z,15.15
2023-03-25T06:52:06.199Z,16.85
2023-03-25T06:57:09.913Z,17.17
2023-03-25T07:02:15.104Z,13.38
2023-03-25T07:07:18.236Z,11.35
2023-03-25T07:12:21.596Z,17.77
2023-03-25T07:17:26.108Z,11.60
2023-03-25T07:22:29.227Z,15.90
2023-03-25T07:27:32.348Z,17.70
2023-03-25T07:32:44.775Z,20.92
2023-03-25T07:37:47.928Z,11.13
2023-03-25T07:42:51.168Z,14.57
2023-03-25T07:48:01.340Z,17.95
2023-03-25T07:53:04.435Z,17.48
2023-03-25T07:58:07.554Z,17.73
2023-03-25T08:03:13.323Z,22.35
2023-03-25T08:08:16.601Z,16.52
2023-03-25T08:13:19.850Z,13.98
2023-03-25T08:18:24.690Z,22.88
2023-03-25T08:23:27.839Z,19.77
2023-03-25T08:28:30.917Z,18.50
2023-03-25T08:33:39.613Z,16.70
2023-03-25T08:38:42.801Z,15.48
2023-03-25T08:43:46.217Z,16.88
2023-03-25T08:48:51.124Z,12.85
2023-03-25T08:53:54.256Z,20.95
2023-03-25T08:58:57.380Z,17.52
2023-03-25T09:04:01.837Z,24.58
2023-03-25T09:09:05.802Z,16.70
2023-03-25T09:14:09.160Z,17.40
2023-03-25T09:19:13.615Z,18.30
2023-03-25T09:24:16.783Z,18.35
2023-03-25T09:29:19.914Z,29.95
2023-03-25T09:34:24.350Z,22.33
2023-03-25T09:39:27.638Z,23.30
2023-03-25T09:44:34.106Z,16.38
2023-03-25T09:49:40.782Z,14.40
2023-03-25T09:54:47.472Z,20.23
2023-03-25T09:59:51.814Z,24.38
2023-03-25T10:05:02.824Z,21.63
2023-03-25T10:10:10.957Z,13.55
2023-03-25T10:15:22.676Z,17.70
2023-03-25T10:20:35.756Z,21.48
2023-03-25T10:25:41.665Z,25.30
2023-03-25T10:30:46.400Z,19.25
2023-03-25T10:35:51.028Z,29.67
2023-03-25T10:41:00.512Z,23.27
2023-03-25T10:46:07.531Z,21.35
2023-03-25T10:51:12.940Z,26.92
2023-03-25T10:56:17.945Z,25.20
2023-03-25T11:01:22.347Z,35.42
2023-03-25T11:06:29.635Z,24.27
2023-03-25T11:11:34.168Z,23.63
2023-03-25T11:16:41.292Z,14.18
2023-03-25T11:21:47.682Z,21.65
2023-03-25T11:26:52.362Z,25.55
2023-03-25T11:32:00.208Z,23.13
2023-03-25T11:37:09.688Z,17.63
2023-03-25T11:42:15.586Z,18.52
2023-03-25T11:47:22.141Z,20.45
2023-03-25T11:52:27.820Z,28.02
2023-03-25T11:57:41.348Z,16.13
2023-03-25T12:02:44.591Z,19.77
2023-03-25T12:07:50.317Z,21.17
2023-03-25T12:12:59.476Z,15.02
2023-03-25T12:18:17.212Z,18.08
2023-03-25T12:23:25.790Z,12.90
2023-03-25T12:28:34.973Z,23.42
2023-03-25T12:33:48.047Z,15.15
2023-03-25T12:38:58.995Z,18.02
2023-03-25T12:44:04.164Z,12.02
2023-03-25T12:49:16.781Z,16.27
2023-03-25T12:54:35.419Z,14.40
2023-03-25T12:59:47.071Z,10.13
2023-03-25T13:05:00.856Z,9.20
2023-03-25T13:10:08.774Z,8.30
2023-03-25T13:15:24.658Z,14.07
2023-03-25T13:20:31.420Z,19.25
2023-03-25T13:25:40.861Z,17.48
2023-03-25T13:30:45.276Z,17.35
2023-03-25T13:35:50.465Z,15.50
2023-03-25T13:40:59.416Z,17.20
2023-03-25T13:46:06.004Z,18.02
2023-03-25T13:51:09.925Z,15.00
2023-03-25T13:56:31.721Z,19.20
2023-03-25T14:01:43.084Z,16.40
2023-03-25T14:06:57.289Z,20.58
2023-03-25T14:12:04.840Z,14.40
2023-03-25T14:17:08.412Z,13.20
2023-03-25T14:22:14.160Z,14.82
2023-03-25T14:27:19.760Z,16.23
2023-03-25T14:32:28.019Z,16.00
2023-03-25T14:37:32.160Z,12.63
2023-03-25T14:42:44.209Z,18.73
2023-03-25T14:47:52.403Z,11.38
2023-03-25T14:52:57.228Z,9.32
2023-03-25T14:58:03.171Z,19.35
2023-03-25T15:03:10.676Z,18.52
2023-03-25T15:08:16.814Z,20.77
2023-03-25T15:13:25.097Z,19.70
2023-03-25T15:18:49.536Z,10.00
2023-03-25T15:23:54.065Z,9.77
2023-03-25T15:29:04.096Z,9.05
2023-03-25T15:34:14.115Z,12.63
2023-03-25T15:39:24.958Z,15.27
2023-03-25T15:44:46.158Z,13.50
2023-03-25T15:50:05.590Z,19.65
2023-03-25T15:55:12.793Z,10.05
2023-03-25T16:00:18.430Z,15.52
2023-03-25T16:05:22.925Z,18.55
2023-03-25T16:10:31.183Z,15.38
2023-03-25T16:15:36.796Z,21.20
2023-03-25T16:20:40.050Z,18.05
2023-03-25T16:25:45.634Z,17.42
2023-03-25T16:30:51.346Z,13.43
2023-03-25T16:35:57.204Z,10.93
2023-03-25T16:41:02.961Z,10.13
2023-03-25T16:46:07.346Z,14.93
2023-03-25T16:51:14.019Z,22.60
2023-03-25T16:56:23.621Z,15.48
2023-03-25T17:01:29.275Z,18.58
2023-03-25T17:06:35.278Z,20.10
2023-03-25T17:11:39.921Z,26.90
2023-03-25T17:16:43.461Z,18.60
2023-03-25T17:22:00.736Z,21.42
2023-03-25T17:27:08.059Z,18.15
2023-03-25T17:32:18.018Z,21.63
2023-03-25T17:37:22.579Z,18.67
2023-03-25T17:42:27.212Z,13.70
2023-03-25T17:47:30.314Z,11.98
2023-03-25T17:52:36.317Z,17.30
2023-03-25T17:57:41.387Z,14.77
2023-03-25T18:02:44.562Z,14.15
2023-03-25T18:07:47.755Z,18.08
2023-03-25T18:12:52.166Z,14.30
2023-03-25T18:17:56.536Z,16.80
2023-03-25T18:22:59.683Z,17.58
2023-03-25T18:28:04.240Z,17.77
2023-03-25T18:33:08.803Z,16.73
2023-03-25T18:38:15.665Z,20.48
2023-03-25T18:43:20.375Z,23.05
2023-03-25T18:48:23.786Z,18.67
2023-03-25T18:53:27.905Z,23.67
2023-03-25T18:58:32.966Z,18.20
2023-03-25T19:03:39.586Z,16.55
2023-03-25T19:08:43.443Z,18.95
2023-03-25T19:13:47.980Z,17.00
2023-03-25T19:18:51.280Z,14.68
2023-03-25T19:23:54.624Z,18.35
2023-03-25T19:28:59.133Z,15.52
2023-03-25T19:34:02.320Z,18.13
2023-03-25T19:39:05.863Z,16.00
2023-03-25T19:44:10.536Z,19.95
2023-03-25T19:49:13.648Z,21.35
2023-03-25T19:54:16.778Z,17.55
2023-03-25T19:59:21.236Z,16.48
2023-03-25T20:04:24.334Z,18.67
2023-03-25T20:09:30.159Z,23.98
2023-03-25T20:14:34.659Z,22.33
2023-03-25T20:19:37.812Z,17.77
2023-03-25T20:24:41.134Z,20.23
2023-03-25T20:29:45.856Z,21.13
2023-03-25T20:34:49.179Z,24.10
2023-03-25T20:39:52.321Z,29.75
2023-03-25T20:44:56.806Z,25.30
2023-03-25T20:49:59.951Z,31.83
2023-03-25T20:55:03.138Z,35.72
2023-03-25T21:00:08.812Z,20.05
2023-03-25T21:05:12.030Z,19.35
2023-03-25T21:10:15.195Z,22.83
2023-03-25T21:15:19.805Z,27.13
2023-03-25T21:20:24.058Z,37.58
2023-03-25T21:25:34.127Z,22.73
2023-03-25T21:30:38.687Z,19.40
2023-03-25T21:35:41.835Z,24.95
2023-03-25T21:40:57.708Z,23.45
2023-03-25T21:46:05.404Z,16.13
2023-03-25T21:51:12.218Z,20.77
2023-03-25T21:56:17.454Z,24.05
2023-03-25T22:01:23.295Z,26.33
2023-03-25T22:06:28.691Z,24.00
2023-03-25T22:11:33.704Z,31.85
2023-03-25T22:16:38.491Z,26.52
2023-03-25T22:21:42.118Z,21.25
2023-03-25T22:26:45.249Z,23.95
2023-03-25T22:31:50.911Z,20.92
2023-03-25T22:36:54.034Z,21.83
2023-03-25T22:41:57.902Z,21.45
2023-03-25T22:47:03.223Z,20.85
2023-03-25T22:52:06.734Z,16.58
2023-03-25T22:57:09.945Z,17.20
2023-03-25T23:02:16.660Z,12.98
2023-03-25T23:07:19.949Z,13.90
2023-03-25T23:12:24.057Z,12.13
2023-03-25T23:17:28.616Z,12.98
2023-03-25T23:22:31.841Z,14.38
2023-03-25T23:27:35.584Z,13.68
2023-03-25T23:32:41.987Z,10.68
2023-03-25T23:37:45.588Z,17.17
2023-03-25T23:42:48.779Z,15.63
2023-03-25T23:47:53.338Z,24.13
2023-03-25T23:52:56.866Z,14.98
2023-03-25T23:57:59.947Z,19.85
